sensor_id;sensor_type;location;lat;lon;timestamp;P1;durP1;ratioP1;P2;durP2;ratioP2
52888;SDS011;41413;52.770;6.892;2023-03-01T00:00:08;0.30;;;0.30;;
52888;SDS011;41413;52.770;6.892;2023-03-01T00:02:35;0.22;;;0.22;;
52888;SDS011;41413;52.770;6.892;2023-03-01T00:05:02;0.30;;;0.30;;
52888;SDS011;41413;52.770;6.892;2023-03-01T00:07:30;0.25;;;0.25;;
52888;SDS011;41413;52.770;6.892;2023-03-01T00:09:57;0.40;;;0.40;;
52888;SDS011;41413;52.770;6.892;2023-03-01T00:12:23;0.30;;;0.30;;
52888;SDS011;41413;52.770;6.892;2023-03-01T00:14:50;0.30;;;0.30;;
52888;SDS011;41413;52.770;6.892;2023-03-01T00:17:17;0.40;;;0.40;;
52888;SDS011;41413;52.770;6.892;2023-03-01T00:19:44;0.35;;;0.35;;
52888;SDS011;41413;52.770;6.892;2023-03-01T00:22:10;0.30;;;0.30;;
52888;SDS011;41413;52.770;6.892;2023-03-01T00:24:37;0.20;;;0.20;;
52888;SDS011;41413;52.770;6.892;2023-03-01T00:27:03;0.30;;;0.30;;
52888;SDS011;41413;52.770;6.892;2023-03-01T00:29:30;0.20;;;0.20;;
52888;SDS011;41413;52.770;6.892;2023-03-01T00:31:57;0.30;;;0.30;;
52888;SDS011;41413;52.770;6.892;2023-03-01T00:34:23;0.28;;;0.28;;
52888;SDS011;41413;52.770;6.892;2023-03-01T00:36:50;0.30;;;0.30;;
52888;SDS011;41413;52.770;6.892;2023-03-01T00:39:17;0.25;;;0.25;;
52888;SDS011;41413;52.770;6.892;2023-03-01T00:41:43;0.30;;;0.30;;
52888;SDS011;41413;52.770;6.892;2023-03-01T00:44:10;0.20;;;0.20;;
52888;SDS011;41413;52.770;6.892;2023-03-01T00:46:37;0.40;;;0.40;;
52888;SDS011;41413;52.770;6.892;2023-03-01T00:49:04;0.40;;;0.40;;
52888;SDS011;41413;52.770;6.892;2023-03-01T00:51:31;0.30;;;0.30;;
52888;SDS011;41413;52.770;6.892;2023-03-01T00:53:59;0.20;;;0.20;;
52888;SDS011;41413;52.770;6.892;2023-03-01T00:56:27;0.30;;;0.30;;
52888;SDS011;41413;52.770;6.892;2023-03-01T00:58:54;0.20;;;0.20;;
52888;SDS011;41413;52.770;6.892;2023-03-01T01:01:22;0.20;;;0.20;;
52888;SDS011;41413;52.770;6.892;2023-03-01T01:03:58;0.35;;;0.35;;
52888;SDS011;41413;52.770;6.892;2023-03-01T01:06:28;0.20;;;0.20;;
52888;SDS011;41413;52.770;6.892;2023-03-01T01:08:57;0.22;;;0.22;;
52888;SDS011;41413;52.770;6.892;2023-03-01T01:11:26;0.30;;;0.30;;
52888;SDS011;41413;52.770;6.892;2023-03-01T01:13:54;0.40;;;0.40;;
52888;SDS011;41413;52.770;6.892;2023-03-01T01:16:21;0.30;;;0.30;;
52888;SDS011;41413;52.770;6.892;2023-03-01T01:18:50;0.30;;;0.30;;
52888;SDS011;41413;52.770;6.892;2023-03-01T01:21:18;0.30;;;0.30;;
52888;SDS011;41413;52.770;6.892;2023-03-01T01:23:47;0.30;;;0.30;;
52888;SDS011;41413;52.770;6.892;2023-03-01T01:26:16;0.20;;;0.20;;
52888;SDS011;41413;52.770;6.892;2023-03-01T01:28:45;0.30;;;0.30;;
52888;SDS011;41413;52.770;6.892;2023-03-01T01:31:12;0.30;;;0.30;;
52888;SDS011;41413;52.770;6.892;2023-03-01T01:33:40;0.20;;;0.20;;
52888;SDS011;41413;52.770;6.892;2023-03-01T01:36:07;0.30;;;0.30;;
52888;SDS011;41413;52.770;6.892;2023-03-01T01:38:34;0.20;;;0.20;;
52888;SDS011;41413;52.770;6.892;2023-03-01T01:41:02;0.30;;;0.30;;
52888;SDS011;41413;52.770;6.892;2023-03-01T01:43:31;0.30;;;0.30;;
52888;SDS011;41413;52.770;6.892;2023-03-01T01:46:05;0.30;;;0.30;;
52888;SDS011;41413;52.770;6.892;2023-03-01T01:48:52;0.30;;;0.30;;
52888;SDS011;41413;52.770;6.892;2023-03-01T01:51:24;0.30;;;0.30;;
52888;SDS011;41413;52.770;6.892;2023-03-01T01:54:08;0.30;;;0.30;;
52888;SDS011;41413;52.770;6.892;2023-03-01T01:59:08;0.20;;;0.20;;
52888;SDS011;41413;52.770;6.892;2023-03-01T02:01:36;0.40;;;0.40;;
52888;SDS011;41413;52.770;6.892;2023-03-01T02:04:03;0.30;;;0.30;;
52888;SDS011;41413;52.770;6.892;2023-03-01T02:06:33;0.30;;;0.30;;
52888;SDS011;41413;52.770;6.892;2023-03-01T02:09:07;0.30;;;0.30;;
52888;SDS011;41413;52.770;6.892;2023-03-01T02:11:39;0.30;;;0.30;;
52888;SDS011;41413;52.770;6.892;2023-03-01T02:14:06;0.20;;;0.20;;
52888;SDS011;41413;52.770;6.892;2023-03-01T02:16:33;0.30;;;0.30;;
52888;SDS011;41413;52.770;6.892;2023-03-01T02:19:00;0.30;;;0.30;;
52888;SDS011;41413;52.770;6.892;2023-03-01T02:27:19;0.20;;;0.20;;
52888;SDS011;41413;52.770;6.892;2023-03-01T02:29:51;0.20;;;0.20;;
52888;SDS011;41413;52.770;6.892;2023-03-01T02:32:18;0.30;;;0.30;;
52888;SDS011;41413;52.770;6.892;2023-03-01T02:34:52;0.20;;;0.20;;
52888;SDS011;41413;52.770;6.892;2023-03-01T02:37:20;0.40;;;0.40;;
52888;SDS011;41413;52.770;6.892;2023-03-01T02:39:53;0.28;;;0.28;;
52888;SDS011;41413;52.770;6.892;2023-03-01T02:42:26;0.30;;;0.30;;
52888;SDS011;41413;52.770;6.892;2023-03-01T02:44:56;0.30;;;0.30;;
52888;SDS011;41413;52.770;6.892;2023-03-01T02:47:23;0.30;;;0.30;;
52888;SDS011;41413;52.770;6.892;2023-03-01T02:49:49;0.30;;;0.30;;
52888;SDS011;41413;52.770;6.892;2023-03-01T02:55:14;0.30;;;0.30;;
52888;SDS011;41413;52.770;6.892;2023-03-01T02:57:43;0.22;;;0.22;;
52888;SDS011;41413;52.770;6.892;2023-03-01T03:00:15;0.30;;;0.30;;
52888;SDS011;41413;52.770;6.892;2023-03-01T03:02:54;0.30;;;0.30;;
52888;SDS011;41413;52.770;6.892;2023-03-01T03:05:24;0.25;;;0.25;;
52888;SDS011;41413;52.770;6.892;2023-03-01T03:07:53;0.20;;;0.20;;
52888;SDS011;41413;52.770;6.892;2023-03-01T03:10:21;0.20;;;0.20;;
52888;SDS011;41413;52.770;6.892;2023-03-01T03:12:57;0.30;;;0.30;;
52888;SDS011;41413;52.770;6.892;2023-03-01T03:15:26;0.20;;;0.20;;
52888;SDS011;41413;52.770;6.892;2023-03-01T03:17:53;0.20;;;0.20;;
52888;SDS011;41413;52.770;6.892;2023-03-01T03:20:22;0.20;;;0.20;;
52888;SDS011;41413;52.770;6.892;2023-03-01T03:22:52;0.32;;;0.32;;
52888;SDS011;41413;52.770;6.892;2023-03-01T03:25:20;0.20;;;0.20;;
52888;SDS011;41413;52.770;6.892;2023-03-01T03:27:48;0.30;;;0.30;;
52888;SDS011;41413;52.770;6.892;2023-03-01T03:30:17;0.28;;;0.28;;
52888;SDS011;41413;52.770;6.892;2023-03-01T03:32:45;0.15;;;0.15;;
52888;SDS011;41413;52.770;6.892;2023-03-01T03:35:26;0.20;;;0.20;;
52888;SDS011;41413;52.770;6.892;2023-03-01T03:37:59;0.20;;;0.20;;
52888;SDS011;41413;52.770;6.892;2023-03-01T03:40:32;0.30;;;0.30;;
52888;SDS011;41413;52.770;6.892;2023-03-01T03:43:02;0.20;;;0.20;;
52888;SDS011;41413;52.770;6.892;2023-03-01T03:45:29;0.22;;;0.22;;
52888;SDS011;41413;52.770;6.892;2023-03-01T03:47:59;0.30;;;0.30;;
52888;SDS011;41413;52.770;6.892;2023-03-01T03:50:27;0.38;;;0.38;;
52888;SDS011;41413;52.770;6.892;2023-03-01T03:52:54;0.30;;;0.30;;
52888;SDS011;41413;52.770;6.892;2023-03-01T03:55:21;0.30;;;0.30;;
52888;SDS011;41413;52.770;6.892;2023-03-01T03:57:48;0.30;;;0.30;;
52888;SDS011;41413;52.770;6.892;2023-03-01T04:00:19;0.30;;;0.30;;
52888;SDS011;41413;52.770;6.892;2023-03-01T04:02:47;0.32;;;0.32;;
52888;SDS011;41413;52.770;6.892;2023-03-01T04:05:15;0.20;;;0.20;;
52888;SDS011;41413;52.770;6.892;2023-03-01T04:07:43;0.20;;;0.20;;
52888;SDS011;41413;52.770;6.892;2023-03-01T04:10:15;0.30;;;0.30;;
52888;SDS011;41413;52.770;6.892;2023-03-01T04:12:43;0.30;;;0.30;;
52888;SDS011;41413;52.770;6.892;2023-03-01T04:15:10;0.30;;;0.30;;
52888;SDS011;41413;52.770;6.892;2023-03-01T04:17:40;0.30;;;0.30;;
52888;SDS011;41413;52.770;6.892;2023-03-01T04:20:09;0.25;;;0.25;;
52888;SDS011;41413;52.770;6.892;2023-03-01T04:22:38;0.20;;;0.20;;
52888;SDS011;41413;52.770;6.892;2023-03-01T04:25:05;0.30;;;0.30;;
52888;SDS011;41413;52.770;6.892;2023-03-01T04:27:33;0.30;;;0.30;;
52888;SDS011;41413;52.770;6.892;2023-03-01T04:30:01;0.30;;;0.30;;
52888;SDS011;41413;52.770;6.892;2023-03-01T04:32:29;0.20;;;0.20;;
52888;SDS011;41413;52.770;6.892;2023-03-01T04:34:56;0.20;;;0.20;;
52888;SDS011;41413;52.770;6.892;2023-03-01T04:37:23;0.20;;;0.20;;
52888;SDS011;41413;52.770;6.892;2023-03-01T04:39:50;0.22;;;0.22;;
52888;SDS011;41413;52.770;6.892;2023-03-01T04:42:16;0.20;;;0.20;;
52888;SDS011;41413;52.770;6.892;2023-03-01T04:44:44;0.20;;;0.20;;
52888;SDS011;41413;52.770;6.892;2023-03-01T04:47:11;0.30;;;0.30;;
52888;SDS011;41413;52.770;6.892;2023-03-01T04:49:38;0.20;;;0.20;;
52888;SDS011;41413;52.770;6.892;2023-03-01T04:52:05;0.25;;;0.25;;
52888;SDS011;41413;52.770;6.892;2023-03-01T04:54:32;0.20;;;0.20;;
52888;SDS011;41413;52.770;6.892;2023-03-01T04:57:01;0.28;;;0.28;;
52888;SDS011;41413;52.770;6.892;2023-03-01T04:59:28;0.20;;;0.20;;
52888;SDS011;41413;52.770;6.892;2023-03-01T05:01:55;0.20;;;0.20;;
52888;SDS011;41413;52.770;6.892;2023-03-01T05:04:25;0.22;;;0.22;;
52888;SDS011;41413;52.770;6.892;2023-03-01T05:06:52;0.20;;;0.20;;
52888;SDS011;41413;52.770;6.892;2023-03-01T05:09:19;0.25;;;0.25;;
52888;SDS011;41413;52.770;6.892;2023-03-01T05:11:46;0.20;;;0.20;;
52888;SDS011;41413;52.770;6.892;2023-03-01T05:14:13;0.20;;;0.20;;
52888;SDS011;41413;52.770;6.892;2023-03-01T05:16:39;0.30;;;0.30;;
52888;SDS011;41413;52.770;6.892;2023-03-01T05:19:06;0.20;;;0.20;;
52888;SDS011;41413;52.770;6.892;2023-03-01T05:21:44;0.32;;;0.32;;
52888;SDS011;41413;52.770;6.892;2023-03-01T05:24:30;0.20;;;0.20;;
52888;SDS011;41413;52.770;6.892;2023-03-01T05:26:58;0.30;;;0.30;;
52888;SDS011;41413;52.770;6.892;2023-03-01T05:29:25;0.20;;;0.20;;
52888;SDS011;41413;52.770;6.892;2023-03-01T05:31:57;0.40;;;0.40;;
52888;SDS011;41413;52.770;6.892;2023-03-01T05:34:25;0.20;;;0.20;;
52888;SDS011;41413;52.770;6.892;2023-03-01T05:36:52;0.20;;;0.20;;
52888;SDS011;41413;52.770;6.892;2023-03-01T05:39:20;0.30;;;0.30;;
52888;SDS011;41413;52.770;6.892;2023-03-01T05:41:51;0.20;;;0.20;;
52888;SDS011;41413;52.770;6.892;2023-03-01T05:44:23;0.20;;;0.20;;
52888;SDS011;41413;52.770;6.892;2023-03-01T05:46:50;0.30;;;0.30;;
52888;SDS011;41413;52.770;6.892;2023-03-01T05:49:18;0.20;;;0.20;;
52888;SDS011;41413;52.770;6.892;2023-03-01T05:51:48;0.30;;;0.30;;
52888;SDS011;41413;52.770;6.892;2023-03-01T05:54:16;0.30;;;0.30;;
52888;SDS011;41413;52.770;6.892;2023-03-01T05:56:44;0.30;;;0.30;;
52888;SDS011;41413;52.770;6.892;2023-03-01T05:59:11;0.30;;;0.30;;
52888;SDS011;41413;52.770;6.892;2023-03-01T06:01:37;0.32;;;0.32;;
52888;SDS011;41413;52.770;6.892;2023-03-01T06:04:04;0.20;;;0.20;;
52888;SDS011;41413;52.770;6.892;2023-03-01T06:06:34;0.25;;;0.25;;
52888;SDS011;41413;52.770;6.892;2023-03-01T06:09:05;0.35;;;0.35;;
52888;SDS011;41413;52.770;6.892;2023-03-01T06:11:34;0.20;;;0.20;;
52888;SDS011;41413;52.770;6.892;2023-03-01T06:14:02;0.20;;;0.20;;
52888;SDS011;41413;52.770;6.892;2023-03-01T06:16:29;0.20;;;0.20;;
52888;SDS011;41413;52.770;6.892;2023-03-01T06:18:57;0.20;;;0.20;;
52888;SDS011;41413;52.770;6.892;2023-03-01T06:21:23;0.20;;;0.20;;
52888;SDS011;41413;52.770;6.892;2023-03-01T06:23:50;0.20;;;0.20;;
52888;SDS011;41413;52.770;6.892;2023-03-01T06:26:18;0.20;;;0.20;;
52888;SDS011;41413;52.770;6.892;2023-03-01T06:28:44;0.20;;;0.20;;
52888;SDS011;41413;52.770;6.892;2023-03-01T06:31:12;0.22;;;0.22;;
52888;SDS011;41413;52.770;6.892;2023-03-01T06:33:39;0.38;;;0.30;;
52888;SDS011;41413;52.770;6.892;2023-03-01T06:36:06;0.20;;;0.20;;
52888;SDS011;41413;52.770;6.892;2023-03-01T06:38:33;0.20;;;0.20;;
52888;SDS011;41413;52.770;6.892;2023-03-01T06:41:00;0.20;;;0.20;;
52888;SDS011;41413;52.770;6.892;2023-03-01T06:43:27;0.20;;;0.20;;
52888;SDS011;41413;52.770;6.892;2023-03-01T06:45:54;0.20;;;0.20;;
52888;SDS011;41413;52.770;6.892;2023-03-01T06:48:20;0.20;;;0.20;;
52888;SDS011;41413;52.770;6.892;2023-03-01T06:50:47;0.30;;;0.30;;
52888;SDS011;41413;52.770;6.892;2023-03-01T06:53:14;0.30;;;0.30;;
52888;SDS011;41413;52.770;6.892;2023-03-01T06:55:41;0.30;;;0.30;;
52888;SDS011;41413;52.770;6.892;2023-03-01T06:58:08;0.30;;;0.30;;
52888;SDS011;41413;52.770;6.892;2023-03-01T07:00:35;0.30;;;0.30;;
52888;SDS011;41413;52.770;6.892;2023-03-01T07:03:02;0.30;;;0.30;;
52888;SDS011;41413;52.770;6.892;2023-03-01T07:05:29;0.28;;;0.28;;
52888;SDS011;41413;52.770;6.892;2023-03-01T07:07:56;0.30;;;0.30;;
52888;SDS011;41413;52.770;6.892;2023-03-01T07:10:23;0.30;;;0.30;;
52888;SDS011;41413;52.770;6.892;2023-03-01T07:12:50;0.22;;;0.22;;
52888;SDS011;41413;52.770;6.892;2023-03-01T07:15:20;0.38;;;0.38;;
52888;SDS011;41413;52.770;6.892;2023-03-01T07:17:47;0.30;;;0.30;;
52888;SDS011;41413;52.770;6.892;2023-03-01T07:20:17;0.30;;;0.30;;
52888;SDS011;41413;52.770;6.892;2023-03-01T07:22:44;0.40;;;0.40;;
52888;SDS011;41413;52.770;6.892;2023-03-01T07:25:11;0.20;;;0.20;;
52888;SDS011;41413;52.770;6.892;2023-03-01T07:27:37;0.30;;;0.30;;
52888;SDS011;41413;52.770;6.892;2023-03-01T07:30:04;0.20;;;0.20;;
52888;SDS011;41413;52.770;6.892;2023-03-01T07:32:31;0.30;;;0.30;;
52888;SDS011;41413;52.770;6.892;2023-03-01T07:34:58;0.20;;;0.20;;
52888;SDS011;41413;52.770;6.892;2023-03-01T07:37:25;0.38;;;0.38;;
52888;SDS011;41413;52.770;6.892;2023-03-01T07:39:52;0.32;;;0.32;;
52888;SDS011;41413;52.770;6.892;2023-03-01T07:42:18;0.38;;;0.38;;
52888;SDS011;41413;52.770;6.892;2023-03-01T07:44:45;0.30;;;0.30;;
52888;SDS011;41413;52.770;6.892;2023-03-01T07:47:12;0.30;;;0.30;;
52888;SDS011;41413;52.770;6.892;2023-03-01T07:49:38;0.22;;;0.22;;
52888;SDS011;41413;52.770;6.892;2023-03-01T07:52:05;0.25;;;0.25;;
52888;SDS011;41413;52.770;6.892;2023-03-01T07:54:32;0.25;;;0.25;;
52888;SDS011;41413;52.770;6.892;2023-03-01T07:56:58;0.30;;;0.30;;
52888;SDS011;41413;52.770;6.892;2023-03-01T07:59:25;0.20;;;0.20;;
52888;SDS011;41413;52.770;6.892;2023-03-01T08:01:58;0.20;;;0.20;;
52888;SDS011;41413;52.770;6.892;2023-03-01T08:04:24;0.40;;;0.40;;
52888;SDS011;41413;52.770;6.892;2023-03-01T08:06:53;0.40;;;0.40;;
52888;SDS011;41413;52.770;6.892;2023-03-01T08:09:20;0.40;;;0.40;;
52888;SDS011;41413;52.770;6.892;2023-03-01T08:11:47;0.20;;;0.20;;
52888;SDS011;41413;52.770;6.892;2023-03-01T08:14:14;0.32;;;0.32;;
52888;SDS011;41413;52.770;6.892;2023-03-01T08:16:41;0.40;;;0.40;;
52888;SDS011;41413;52.770;6.892;2023-03-01T08:19:09;0.38;;;0.38;;
52888;SDS011;41413;52.770;6.892;2023-03-01T08:21:37;0.45;;;0.45;;
52888;SDS011;41413;52.770;6.892;2023-03-01T08:24:04;0.30;;;0.30;;
52888;SDS011;41413;52.770;6.892;2023-03-01T08:26:32;0.50;;;0.50;;
52888;SDS011;41413;52.770;6.892;2023-03-01T08:29:00;0.40;;;0.40;;
52888;SDS011;41413;52.770;6.892;2023-03-01T08:31:31;0.50;;;0.50;;
52888;SDS011;41413;52.770;6.892;2023-03-01T08:34:02;0.50;;;0.50;;
52888;SDS011;41413;52.770;6.892;2023-03-01T08:36:38;0.52;;;0.52;;
52888;SDS011;41413;52.770;6.892;2023-03-01T08:39:07;0.50;;;0.50;;
52888;SDS011;41413;52.770;6.892;2023-03-01T08:41:35;0.40;;;0.40;;
52888;SDS011;41413;52.770;6.892;2023-03-01T08:44:02;0.52;;;0.52;;
52888;SDS011;41413;52.770;6.892;2023-03-01T08:46:30;0.50;;;0.50;;
52888;SDS011;41413;52.770;6.892;2023-03-01T08:48:59;0.40;;;0.40;;
52888;SDS011;41413;52.770;6.892;2023-03-01T08:51:26;0.85;;;0.85;;
52888;SDS011;41413;52.770;6.892;2023-03-01T08:53:53;0.70;;;0.70;;
52888;SDS011;41413;52.770;6.892;2023-03-01T08:56:20;0.60;;;0.60;;
52888;SDS011;41413;52.770;6.892;2023-03-01T08:58:47;0.80;;;0.80;;
52888;SDS011;41413;52.770;6.892;2023-03-01T09:01:16;0.75;;;0.75;;
52888;SDS011;41413;52.770;6.892;2023-03-01T09:03:45;0.95;;;0.95;;
52888;SDS011;41413;52.770;6.892;2023-03-01T09:06:12;0.98;;;0.98;;
52888;SDS011;41413;52.770;6.892;2023-03-01T09:08:41;0.93;;;0.93;;
52888;SDS011;41413;52.770;6.892;2023-03-01T09:11:10;1.10;;;1.10;;
52888;SDS011;41413;52.770;6.892;2023-03-01T09:13:39;0.73;;;0.73;;
52888;SDS011;41413;52.770;6.892;2023-03-01T09:16:10;0.98;;;0.98;;
52888;SDS011;41413;52.770;6.892;2023-03-01T09:18:39;0.80;;;0.80;;
52888;SDS011;41413;52.770;6.892;2023-03-01T09:21:08;0.90;;;0.90;;
52888;SDS011;41413;52.770;6.892;2023-03-01T09:23:45;0.70;;;0.70;;
52888;SDS011;41413;52.770;6.892;2023-03-01T09:26:17;0.90;;;0.90;;
52888;SDS011;41413;52.770;6.892;2023-03-01T09:28:45;0.65;;;0.65;;
52888;SDS011;41413;52.770;6.892;2023-03-01T09:31:13;0.80;;;0.80;;
52888;SDS011;41413;52.770;6.892;2023-03-01T09:33:41;0.93;;;0.93;;
52888;SDS011;41413;52.770;6.892;2023-03-01T09:36:12;0.70;;;0.70;;
52888;SDS011;41413;52.770;6.892;2023-03-01T09:38:41;0.80;;;0.80;;
52888;SDS011;41413;52.770;6.892;2023-03-01T09:43:47;1.00;;;1.00;;
52888;SDS011;41413;52.770;6.892;2023-03-01T09:46:22;0.98;;;0.98;;
52888;SDS011;41413;52.770;6.892;2023-03-01T09:51:30;0.90;;;0.90;;
52888;SDS011;41413;52.770;6.892;2023-03-01T09:54:00;0.60;;;0.60;;
52888;SDS011;41413;52.770;6.892;2023-03-01T09:56:49;0.88;;;0.88;;
52888;SDS011;41413;52.770;6.892;2023-03-01T09:59:30;0.70;;;0.70;;
52888;SDS011;41413;52.770;6.892;2023-03-01T10:02:07;0.70;;;0.70;;
52888;SDS011;41413;52.770;6.892;2023-03-01T10:04:50;0.68;;;0.68;;
52888;SDS011;41413;52.770;6.892;2023-03-01T10:07:37;0.98;;;0.98;;
52888;SDS011;41413;52.770;6.892;2023-03-01T10:10:08;0.88;;;0.88;;
52888;SDS011;41413;52.770;6.892;2023-03-01T10:12:40;0.88;;;0.88;;
52888;SDS011;41413;52.770;6.892;2023-03-01T10:17:46;0.63;;;0.63;;
52888;SDS011;41413;52.770;6.892;2023-03-01T10:20:23;0.90;;;0.90;;
52888;SDS011;41413;52.770;6.892;2023-03-01T10:22:59;0.60;;;0.60;;
52888;SDS011;41413;52.770;6.892;2023-03-01T10:28:05;0.80;;;0.80;;
52888;SDS011;41413;52.770;6.892;2023-03-01T10:30:42;0.70;;;0.70;;
52888;SDS011;41413;52.770;6.892;2023-03-01T10:33:29;0.70;;;0.70;;
52888;SDS011;41413;52.770;6.892;2023-03-01T10:36:00;0.60;;;0.60;;
52888;SDS011;41413;52.770;6.892;2023-03-01T10:38:26;0.80;;;0.80;;
52888;SDS011;41413;52.770;6.892;2023-03-01T10:41:04;0.80;;;0.80;;
52888;SDS011;41413;52.770;6.892;2023-03-01T10:43:41;0.88;;;0.88;;
52888;SDS011;41413;52.770;6.892;2023-03-01T10:46:25;0.90;;;0.90;;
52888;SDS011;41413;52.770;6.892;2023-03-01T10:51:49;0.52;;;0.52;;
52888;SDS011;41413;52.770;6.892;2023-03-01T10:56:56;0.95;;;0.95;;
52888;SDS011;41413;52.770;6.892;2023-03-01T10:59:28;0.77;;;0.77;;
52888;SDS011;41413;52.770;6.892;2023-03-01T11:07:49;0.60;;;0.60;;
52888;SDS011;41413;52.770;6.892;2023-03-01T11:12:54;0.70;;;0.70;;
52888;SDS011;41413;52.770;6.892;2023-03-01T11:15:41;0.68;;;0.68;;
52888;SDS011;41413;52.770;6.892;2023-03-01T11:18:21;0.60;;;0.60;;
52888;SDS011;41413;52.770;6.892;2023-03-01T11:21:05;0.70;;;0.70;;
52888;SDS011;41413;52.770;6.892;2023-03-01T11:23:34;0.88;;;0.88;;
52888;SDS011;41413;52.770;6.892;2023-03-01T11:26:07;0.70;;;0.70;;
52888;SDS011;41413;52.770;6.892;2023-03-01T11:28:38;0.57;;;0.57;;
52888;SDS011;41413;52.770;6.892;2023-03-01T11:31:08;0.63;;;0.63;;
52888;SDS011;41413;52.770;6.892;2023-03-01T11:36:31;0.70;;;0.70;;
52888;SDS011;41413;52.770;6.892;2023-03-01T11:42:02;0.80;;;0.80;;
52888;SDS011;41413;52.770;6.892;2023-03-01T11:44:50;0.68;;;0.68;;
52888;SDS011;41413;52.770;6.892;2023-03-01T11:50:10;0.63;;;0.63;;
52888;SDS011;41413;52.770;6.892;2023-03-01T11:53:21;0.70;;;0.70;;
52888;SDS011;41413;52.770;6.892;2023-03-01T11:59:15;0.50;;;0.50;;
52888;SDS011;41413;52.770;6.892;2023-03-01T12:07:33;0.57;;;0.57;;
52888;SDS011;41413;52.770;6.892;2023-03-01T12:12:52;0.50;;;0.50;;
52888;SDS011;41413;52.770;6.892;2023-03-01T12:15:56;0.50;;;0.50;;
52888;SDS011;41413;52.770;6.892;2023-03-01T12:27:14;0.60;;;0.60;;
52888;SDS011;41413;52.770;6.892;2023-03-01T12:32:41;0.50;;;0.50;;
52888;SDS011;41413;52.770;6.892;2023-03-01T12:35:21;0.47;;;0.47;;
52888;SDS011;41413;52.770;6.892;2023-03-01T12:37:54;0.65;;;0.65;;
52888;SDS011;41413;52.770;6.892;2023-03-01T12:40:37;0.50;;;0.50;;
52888;SDS011;41413;52.770;6.892;2023-03-01T12:48:50;0.50;;;0.50;;
52888;SDS011;41413;52.770;6.892;2023-03-01T12:51:30;0.55;;;0.55;;
52888;SDS011;41413;52.770;6.892;2023-03-01T12:53:59;0.47;;;0.47;;
52888;SDS011;41413;52.770;6.892;2023-03-01T12:56:32;0.47;;;0.47;;
52888;SDS011;41413;52.770;6.892;2023-03-01T12:59:08;0.50;;;0.50;;
52888;SDS011;41413;52.770;6.892;2023-03-01T13:01:56;0.68;;;0.68;;
52888;SDS011;41413;52.770;6.892;2023-03-01T13:07:50;0.60;;;0.60;;
52888;SDS011;41413;52.770;6.892;2023-03-01T13:10:21;0.55;;;0.55;;
52888;SDS011;41413;52.770;6.892;2023-03-01T13:13:01;0.50;;;0.50;;
52888;SDS011;41413;52.770;6.892;2023-03-01T13:15:30;0.50;;;0.50;;
52888;SDS011;41413;52.770;6.892;2023-03-01T13:31:54;0.50;;;0.50;;
52888;SDS011;41413;52.770;6.892;2023-03-01T13:33:58;0.50;;;0.50;;
52888;SDS011;41413;52.770;6.892;2023-03-01T13:38:57;0.60;;;0.60;;
52888;SDS011;41413;52.770;6.892;2023-03-01T13:41:59;0.47;;;0.47;;
52888;SDS011;41413;52.770;6.892;2023-03-01T13:47:32;0.45;;;0.45;;
52888;SDS011;41413;52.770;6.892;2023-03-01T13:49:47;0.50;;;0.50;;
52888;SDS011;41413;52.770;6.892;2023-03-01T13:55:22;0.50;;;0.50;;
52888;SDS011;41413;52.770;6.892;2023-03-01T13:58:18;0.50;;;0.50;;
52888;SDS011;41413;52.770;6.892;2023-03-01T14:01:01;0.45;;;0.45;;
52888;SDS011;41413;52.770;6.892;2023-03-01T14:03:30;0.60;;;0.60;;
52888;SDS011;41413;52.770;6.892;2023-03-01T14:06:32;0.60;;;0.60;;
52888;SDS011;41413;52.770;6.892;2023-03-01T14:17:35;0.60;;;0.60;;
52888;SDS011;41413;52.770;6.892;2023-03-01T14:22:51;0.60;;;0.60;;
52888;SDS011;41413;52.770;6.892;2023-03-01T14:28:02;0.50;;;0.50;;
52888;SDS011;41413;52.770;6.892;2023-03-01T14:30:37;0.50;;;0.50;;
52888;SDS011;41413;52.770;6.892;2023-03-01T14:33:21;0.60;;;0.60;;
52888;SDS011;41413;52.770;6.892;2023-03-01T14:35:57;0.47;;;0.47;;
52888;SDS011;41413;52.770;6.892;2023-03-01T14:38:34;0.40;;;0.40;;
52888;SDS011;41413;52.770;6.892;2023-03-01T14:41:05;0.55;;;0.55;;
52888;SDS011;41413;52.770;6.892;2023-03-01T14:43:37;0.40;;;0.40;;
52888;SDS011;41413;52.770;6.892;2023-03-01T14:46:16;0.50;;;0.50;;
52888;SDS011;41413;52.770;6.892;2023-03-01T14:48:53;0.40;;;0.40;;
52888;SDS011;41413;52.770;6.892;2023-03-01T14:51:24;0.40;;;0.40;;
52888;SDS011;41413;52.770;6.892;2023-03-01T14:53:50;0.57;;;0.57;;
52888;SDS011;41413;52.770;6.892;2023-03-01T14:56:19;0.50;;;0.50;;
52888;SDS011;41413;52.770;6.892;2023-03-01T14:58:46;0.50;;;0.50;;
52888;SDS011;41413;52.770;6.892;2023-03-01T15:01:18;0.50;;;0.50;;
52888;SDS011;41413;52.770;6.892;2023-03-01T15:03:46;0.40;;;0.40;;
52888;SDS011;41413;52.770;6.892;2023-03-01T15:06:16;0.50;;;0.50;;
52888;SDS011;41413;52.770;6.892;2023-03-01T15:08:46;0.50;;;0.50;;
52888;SDS011;41413;52.770;6.892;2023-03-01T15:11:23;0.50;;;0.50;;
52888;SDS011;41413;52.770;6.892;2023-03-01T15:13:54;0.50;;;0.50;;
52888;SDS011;41413;52.770;6.892;2023-03-01T15:16:31;0.55;;;0.55;;
52888;SDS011;41413;52.770;6.892;2023-03-01T15:19:00;0.57;;;0.57;;
52888;SDS011;41413;52.770;6.892;2023-03-01T15:21:31;0.52;;;0.52;;
52888;SDS011;41413;52.770;6.892;2023-03-01T15:24:23;0.40;;;0.40;;
52888;SDS011;41413;52.770;6.892;2023-03-01T15:29:20;0.40;;;0.40;;
52888;SDS011;41413;52.770;6.892;2023-03-01T15:31:56;0.40;;;0.40;;
52888;SDS011;41413;52.770;6.892;2023-03-01T15:34:28;0.40;;;0.40;;
52888;SDS011;41413;52.770;6.892;2023-03-01T15:36:55;0.50;;;0.50;;
52888;SDS011;41413;52.770;6.892;2023-03-01T15:39:38;0.50;;;0.50;;
52888;SDS011;41413;52.770;6.892;2023-03-01T15:42:11;0.38;;;0.38;;
52888;SDS011;41413;52.770;6.892;2023-03-01T15:44:39;0.50;;;0.50;;
52888;SDS011;41413;52.770;6.892;2023-03-01T15:47:26;0.47;;;0.47;;
52888;SDS011;41413;52.770;6.892;2023-03-01T15:49:58;0.50;;;0.50;;
52888;SDS011;41413;52.770;6.892;2023-03-01T15:52:39;0.32;;;0.32;;
52888;SDS011;41413;52.770;6.892;2023-03-01T15:55:20;0.50;;;0.50;;
52888;SDS011;41413;52.770;6.892;2023-03-01T15:57:48;0.40;;;0.40;;
52888;SDS011;41413;52.770;6.892;2023-03-01T16:00:23;0.40;;;0.40;;
52888;SDS011;41413;52.770;6.892;2023-03-01T16:02:50;0.50;;;0.50;;
52888;SDS011;41413;52.770;6.892;2023-03-01T16:05:21;0.40;;;0.40;;
52888;SDS011;41413;52.770;6.892;2023-03-01T16:07:53;0.50;;;0.50;;
52888;SDS011;41413;52.770;6.892;2023-03-01T16:10:20;0.40;;;0.40;;
52888;SDS011;41413;52.770;6.892;2023-03-01T16:12:49;0.38;;;0.38;;
52888;SDS011;41413;52.770;6.892;2023-03-01T16:15:25;0.40;;;0.40;;
52888;SDS011;41413;52.770;6.892;2023-03-01T16:17:57;0.40;;;0.40;;
52888;SDS011;41413;52.770;6.892;2023-03-01T16:20:24;0.40;;;0.40;;
52888;SDS011;41413;52.770;6.892;2023-03-01T16:22:57;0.40;;;0.40;;
52888;SDS011;41413;52.770;6.892;2023-03-01T16:25:26;0.40;;;0.40;;
52888;SDS011;41413;52.770;6.892;2023-03-01T16:27:53;0.40;;;0.40;;
52888;SDS011;41413;52.770;6.892;2023-03-01T16:30:21;0.70;;;0.70;;
52888;SDS011;41413;52.770;6.892;2023-03-01T16:32:49;0.40;;;0.40;;
52888;SDS011;41413;52.770;6.892;2023-03-01T16:35:17;0.40;;;0.40;;
52888;SDS011;41413;52.770;6.892;2023-03-01T16:37:46;0.40;;;0.40;;
52888;SDS011;41413;52.770;6.892;2023-03-01T16:40:18;0.40;;;0.40;;
52888;SDS011;41413;52.770;6.892;2023-03-01T16:42:50;0.40;;;0.40;;
52888;SDS011;41413;52.770;6.892;2023-03-01T16:45:17;0.45;;;0.45;;
52888;SDS011;41413;52.770;6.892;2023-03-01T16:47:50;0.40;;;0.40;;
52888;SDS011;41413;52.770;6.892;2023-03-01T16:50:20;0.52;;;0.52;;
52888;SDS011;41413;52.770;6.892;2023-03-01T16:52:48;0.40;;;0.40;;
52888;SDS011;41413;52.770;6.892;2023-03-01T16:55:14;0.50;;;0.50;;
52888;SDS011;41413;52.770;6.892;2023-03-01T16:57:41;0.30;;;0.30;;
52888;SDS011;41413;52.770;6.892;2023-03-01T17:00:09;0.40;;;0.40;;
52888;SDS011;41413;52.770;6.892;2023-03-01T17:02:39;0.40;;;0.40;;